Time;durP1;ratioP1;P1;durP2;ratioP2;P2;SDS_P1;SDS_P2;PMS_P1;PMS_P2;Temp;Humidity;BMP_temperature;BMP_pressure;BME280_temperature;BME280_humidity;BME280_pressure;Samples;Min_cycle;Max_cycle;Signal;HPM_P1;HPM_P2
2022/03/11 00:00:42;;;;;;;15.43;9.27;;;;;;;-1.38;94.86;102390.53;4902044;29;20032;-71
2022/03/11 00:03:28;;;;;;;15.02;7.85;;;;;;;-1.69;98.53;102399.88;4902233;29;20446;-71
2022/03/11 00:06:13;;;;;;;12.73;7.50;;;;;;;-1.87;99.92;102402.28;4903201;29;20036;-72
2022/03/11 00:08:59;;;;;;;12.68;7.82;;;;;;;-1.86;98.99;102403.13;4902810;29;20378;-73
2022/03/11 00:11:45;;;;;;;12.55;7.47;;;;;;;-1.68;98.04;102393.94;4902998;29;20028;-73
2022/03/11 00:14:31;;;;;;;12.90;7.15;;;;;;;-1.52;96.01;102386.31;4902731;29;20060;-72
2022/03/11 00:17:16;;;;;;;12.63;7.32;;;;;;;-1.55;93.29;102392.19;4902782;29;20074;-73
2022/03/11 00:20:03;;;;;;;11.85;7.75;;;;;;;-1.41;93.32;102395.53;4902275;28;20036;-74
2022/03/11 00:22:50;;;;;;;11.77;7.38;;;;;;;-1.07;88.97;102394.94;4901635;29;20171;-72
2022/03/11 00:25:36;;;;;;;13.05;7.75;;;;;;;-0.96;92.24;102388.69;4903224;29;20107;-73
2022/03/11 00:28:22;;;;;;;12.32;7.15;;;;;;;-1.12;89.01;102387.78;4902046;29;20514;-73
2022/03/11 00:31:08;;;;;;;15.95;8.68;;;;;;;-1.20;90.49;102389.91;4902126;29;20124;-73
2022/03/11 00:33:54;;;;;;;14.00;7.45;;;;;;;-1.20;88.37;102381.31;4901725;29;20029;-73
2022/03/11 00:36:43;;;;;;;13.63;7.93;;;;;;;-1.30;87.14;102390.19;4902882;29;20048;-73
2022/03/11 00:39:28;;;;;;;12.02;7.38;;;;;;;-1.16;89.18;102388.41;4901487;29;20029;-73
2022/03/11 00:42:14;;;;;;;12.73;7.22;;;;;;;-1.23;88.98;102391.41;4902787;29;20446;-73
2022/03/11 00:45:01;;;;;;;13.32;7.43;;;;;;;-1.43;87.94;102381.69;4902304;29;20043;-72
2022/03/11 00:47:46;;;;;;;12.57;7.47;;;;;;;-1.25;88.10;102388.75;4902486;29;20056;-73
2022/03/11 00:50:32;;;;;;;13.35;8.25;;;;;;;-1.10;88.07;102388.72;4901827;28;20039;-73
2022/03/11 00:53:18;;;;;;;13.45;7.50;;;;;;;-1.24;85.52;102379.38;4901789;29;20401;-73
2022/03/11 00:56:04;;;;;;;11.07;7.00;;;;;;;-1.12;86.79;102377.47;4900771;29;20361;-73
2022/03/11 00:58:49;;;;;;;12.25;7.32;;;;;;;-1.16;86.08;102381.56;4902478;29;20111;-73
2022/03/11 01:01:35;;;;;;;12.38;7.15;;;;;;;-1.25;86.94;102385.28;4902167;29;20335;-73
2022/03/11 01:04:21;;;;;;;13.00;7.43;;;;;;;-1.14;86.61;102387.69;4902306;29;20076;-72
2022/03/11 01:07:07;;;;;;;11.98;7.72;;;;;;;-1.11;86.46;102392.09;4901098;29;20055;-73
2022/03/11 01:09:54;;;;;;;13.65;7.70;;;;;;;-1.29;83.03;102380.81;4901596;29;20361;-73
2022/03/11 01:12:40;;;;;;;12.75;7.25;;;;;;;-1.71;83.05;102388.63;4901681;29;20028;-72
2022/03/11 01:15:26;;;;;;;14.10;8.65;;;;;;;-1.59;83.79;102379.06;4900839;29;20032;-72
2022/03/11 01:18:12;;;;;;;11.77;7.63;;;;;;;-1.62;83.49;102384.00;4901715;29;20051;-73
2022/03/11 01:20:58;;;;;;;13.90;7.63;;;;;;;-1.64;83.59;102377.91;4901189;29;20048;-72
2022/03/11 01:23:43;;;;;;;12.63;7.03;;;;;;;-1.54;84.45;102383.66;4902164;29;20032;-73
2022/03/11 01:26:29;;;;;;;11.75;7.38;;;;;;;-1.91;87.05;102376.31;4900328;29;20028;-74
2022/03/11 01:29:15;;;;;;;12.93;7.75;;;;;;;-1.68;85.84;102376.81;4901938;29;20064;-73
2022/03/11 01:32:01;;;;;;;12.50;6.95;;;;;;;-1.88;86.12;102386.75;4901793;29;20399;-73
2022/03/11 01:34:46;;;;;;;12.05;7.40;;;;;;;-1.47;87.00;102385.78;4902138;29;20032;-73
2022/03/11 01:37:32;;;;;;;11.25;7.00;;;;;;;-1.60;85.70;102382.44;4900661;29;20107;-73
2022/03/11 01:40:18;;;;;;;15.73;8.32;;;;;;;-1.58;85.01;102381.72;4900955;29;20037;-73
2022/03/11 01:43:04;;;;;;;13.40;7.35;;;;;;;-1.48;86.10;102378.84;4901813;29;20032;-72
2022/03/11 01:45:49;;;;;;;12.07;7.35;;;;;;;-1.56;84.65;102387.81;4886652;29;20212;-73
2022/03/11 01:48:35;;;;;;;16.65;7.38;;;;;;;-1.24;85.87;102382.81;4901808;29;20339;-75
2022/03/11 01:51:21;;;;;;;12.45;7.55;;;;;;;-1.48;85.85;102386.56;4900497;29;20518;-73
2022/03/11 01:54:08;;;;;;;12.02;7.32;;;;;;;-1.26;85.98;102391.25;4888034;29;20512;-73
2022/03/11 01:56:54;;;;;;;12.80;7.60;;;;;;;-1.04;84.05;102389.09;4900431;29;20522;-74
2022/03/11 01:59:40;;;;;;;12.40;6.97;;;;;;;-1.40;83.81;102387.88;4901223;29;20465;-73
2022/03/11 02:02:26;;;;;;;12.07;6.88;;;;;;;-1.26;82.25;102387.00;4900087;29;20071;-73
2022/03/11 02:05:17;;;;;;;11.80;6.00;;;;;;;-1.07;83.52;102388.91;4901286;29;20134;-73
2022/03/11 02:08:03;;;;;;;11.60;6.68;;;;;;;-0.88;81.39;102402.84;4900748;29;20438;-74
2022/03/11 02:10:49;;;;;;;12.32;7.28;;;;;;;-0.80;82.24;102409.31;4900240;29;20063;-73
2022/03/11 02:13:52;;;;;;;16.08;7.32;;;;;;;-1.19;81.70;102403.66;4899573;29;20039;-73
2022/03/11 02:16:40;;;;;;;13.60;7.28;;;;;;;-1.18;82.29;102405.41;4900640;29;20044;-72
2022/03/11 02:19:25;;;;;;;13.82;7.38;;;;;;;-1.03;82.27;102403.69;4899893;29;20115;-72
2022/03/11 02:22:13;;;;;;;11.73;6.82;;;;;;;-1.06;81.80;102408.66;4900189;29;20123;-72
2022/03/11 02:24:59;;;;;;;11.32;7.38;;;;;;;-1.00;83.06;102403.88;4900716;29;20040;-73
2022/03/11 02:27:46;;;;;;;12.23;7.57;;;;;;;-1.44;83.91;102396.22;4900805;29;20033;-74
2022/03/11 02:30:32;;;;;;;12.55;7.43;;;;;;;-1.47;87.96;102397.75;4901257;29;20028;-73
2022/03/11 02:33:18;;;;;;;13.45;7.05;;;;;;;-1.16;87.01;102408.97;4900423;29;20029;-72
2022/03/11 02:36:04;;;;;;;13.25;7.50;;;;;;;-1.47;90.34;102405.44;4899922;29;20046;-73
2022/03/11 02:38:51;;;;;;;12.82;7.35;;;;;;;-1.56;90.92;102415.22;4899964;29;20127;-72
2022/03/11 02:41:41;;;;;;;12.45;6.97;;;;;;;-1.29;92.71;102406.53;4900859;29;20032;-73
2022/03/11 02:44:29;;;;;;;13.35;7.53;;;;;;;-1.05;90.82;102408.75;4899587;29;20028;-73
2022/03/11 02:47:15;;;;;;;13.98;6.95;;;;;;;-1.32;93.44;102414.03;4900273;29;20032;-73
2022/03/11 02:50:00;;;;;;;13.85;8.02;;;;;;;-1.56;94.41;102426.34;4899726;29;20032;-73
2022/03/11 02:52:46;;;;;;;13.52;7.55;;;;;;;-1.33;93.80;102414.84;4900673;29;20029;-72
2022/03/11 02:55:32;;;;;;;14.82;8.50;;;;;;;-1.21;91.21;102420.66;4900223;29;20473;-73
2022/03/11 02:58:18;;;;;;;14.02;7.85;;;;;;;-1.24;91.17;102420.50;4900123;29;20357;-72
2022/03/11 03:01:05;;;;;;;12.50;7.00;;;;;;;-1.29;90.14;102427.09;4899880;29;20369;-73
2022/03/11 03:03:51;;;;;;;14.20;7.80;;;;;;;-1.44;91.25;102431.34;4900032;29;20051;-72
2022/03/11 03:06:37;;;;;;;13.60;7.47;;;;;;;-1.41;90.62;102432.38;4900134;29;20072;-73
2022/03/11 03:09:23;;;;;;;13.52;7.68;;;;;;;-1.63;93.14;102436.19;4900815;29;20032;-73
2022/03/11 03:12:10;;;;;;;14.23;7.68;;;;;;;-1.28;88.28;102424.56;4899921;29;20114;-73
2022/03/11 03:14:55;;;;;;;13.55;7.22;;;;;;;-1.21;87.73;102430.94;4899949;29;20478;-72
2022/03/11 03:17:41;;;;;;;12.75;7.35;;;;;;;-1.36;88.71;102430.97;4899519;29;20039;-74
2022/03/11 03:20:27;;;;;;;11.82;7.32;;;;;;;-1.74;91.83;102435.56;4898776;29;20111;-72
2022/03/11 03:23:13;;;;;;;13.82;8.20;;;;;;;-1.39;89.43;102433.38;4899583;29;20428;-73
2022/03/11 03:26:00;;;;;;;15.73;8.00;;;;;;;-1.18;86.86;102425.97;4899664;28;20033;-73
2022/03/11 03:28:46;;;;;;;17.35;8.18;;;;;;;-1.44;88.61;102433.91;4900597;29;20044;-73
2022/03/11 03:31:32;;;;;;;15.48;8.02;;;;;;;-1.49;91.40;102430.19;4900309;29;20033;-72
2022/03/11 03:34:17;;;;;;;15.07;8.35;;;;;;;-1.42;89.67;102428.06;4898827;29;20091;-73
2022/03/11 03:37:07;;;;;;;14.73;8.15;;;;;;;-1.38;87.37;102426.53;4900191;29;20095;-73
2022/03/11 03:39:52;;;;;;;15.20;8.40;;;;;;;-1.31;85.07;102420.94;4899896;29;20108;-74
2022/03/11 03:42:38;;;;;;;13.25;8.02;;;;;;;-1.76;88.89;102432.00;4900093;29;20123;-73
2022/03/11 03:45:24;;;;;;;14.43;7.95;;;;;;;-1.98;92.64;102430.66;4900395;29;20314;-73
2022/03/11 03:48:10;;;;;;;14.57;8.55;;;;;;;-2.12;96.98;102434.09;4900328;29;20038;-73
2022/03/11 03:50:55;;;;;;;15.63;9.38;;;;;;;-2.26;98.38;102424.66;4900213;29;20020;-73
2022/03/11 03:53:41;;;;;;;13.85;7.80;;;;;;;-2.62;97.49;102427.56;4899338;29;20037;-73
2022/03/11 03:56:27;;;;;;;15.68;8.20;;;;;;;-2.64;98.69;102417.22;4901111;29;20024;-73
2022/03/11 03:59:13;;;;;;;13.70;7.35;;;;;;;-2.72;99.55;102420.06;4902234;29;20047;-72
2022/03/11 04:01:59;;;;;;;16.48;7.82;;;;;;;-2.64;96.47;102421.44;4889493;29;20485;-73
2022/03/11 04:04:45;;;;;;;15.23;8.02;;;;;;;-2.51;95.47;102417.16;4901838;29;20135;-73
2022/03/11 04:07:31;;;;;;;16.75;7.93;;;;;;;-2.31;95.28;102431.19;4903741;29;20096;-73
2022/03/11 04:10:20;;;;;;;14.07;8.15;;;;;;;-2.56;93.85;102427.94;4888840;29;20406;-72
2022/03/11 04:13:06;;;;;;;15.13;7.80;;;;;;;-2.47;93.81;102425.91;4901478;29;20025;-72
2022/03/11 04:15:52;;;;;;;12.48;7.75;;;;;;;-2.61;94.15;102422.50;4903645;29;20036;-73
2022/03/11 04:18:38;;;;;;;19.25;7.55;;;;;;;-2.48;93.68;102417.34;4902793;29;20036;-72
2022/03/11 04:21:23;;;;;;;15.75;7.50;;;;;;;-2.63;95.25;102413.84;4902971;29;20060;-74
2022/03/11 04:24:14;;;;;;;14.18;7.78;;;;;;;-2.51;95.92;102413.69;4901660;29;20032;-73
2022/03/11 04:26:59;;;;;;;15.10;8.20;;;;;;;-2.45;96.07;102411.53;4903198;29;20029;-72
2022/03/11 04:29:45;;;;;;;14.38;8.05;;;;;;;-2.55;96.38;102414.28;4903103;29;20058;-72
2022/03/11 04:32:31;;;;;;;16.23;8.75;;;;;;;-2.55;97.61;102419.44;4902005;28;20118;-73
2022/03/11 04:35:17;;;;;;;17.55;9.23;;;;;;;-2.53;98.35;102428.13;4902196;29;20033;-74
2022/03/11 04:38:03;;;;;;;17.02;9.15;;;;;;;-2.63;98.69;102429.22;4901765;29;20028;-73
2022/03/11 04:40:48;;;;;;;19.25;9.10;;;;;;;-2.64;98.69;102432.59;4902630;29;20043;-73
2022/03/11 04:43:36;;;;;;;17.85;8.65;;;;;;;-2.46;99.71;102437.94;4901208;29;20373;-73
2022/03/11 04:46:22;;;;;;;18.10;9.40;;;;;;;-2.53;99.12;102436.69;4903038;29;20429;-75
2022/03/11 04:49:08;;;;;;;20.08;9.35;;;;;;;-2.51;98.09;102436.78;4901657;29;20032;-74
2022/03/11 04:51:54;;;;;;;22.60;9.35;;;;;;;-2.42;97.59;102432.22;4901738;29;20442;-73
2022/03/11 04:54:39;;;;;;;19.25;9.70;;;;;;;-2.49;96.84;102435.22;4902389;29;20480;-75
2022/03/11 04:57:25;;;;;;;24.90;10.02;;;;;;;-2.45;95.38;102439.75;4902863;29;20044;-72
2022/03/11 05:00:12;;;;;;;21.50;9.95;;;;;;;-2.51;94.54;102436.78;4902617;29;20088;-73
2022/03/11 05:02:58;;;;;;;20.58;9.82;;;;;;;-2.40;93.72;102438.34;4901174;29;20029;-73
2022/03/11 05:05:44;;;;;;;18.73;9.25;;;;;;;-2.35;91.15;102442.97;4902849;29;20032;-73
2022/03/11 05:08:29;;;;;;;21.05;9.30;;;;;;;-2.27;93.14;102448.56;4900353;29;20024;-73
2022/03/11 05:11:15;;;;;;;19.25;9.05;;;;;;;-2.23;89.87;102445.38;4901925;29;20048;-75
2022/03/11 05:14:01;;;;;;;17.38;9.13;;;;;;;-2.24;90.91;102456.44;4902124;29;20060;-73
2022/03/11 05:16:47;;;;;;;14.93;8.23;;;;;;;-2.28;90.07;102454.50;4889003;29;20031;-73
2022/03/11 05:19:33;;;;;;;17.35;8.30;;;;;;;-2.31;88.48;102462.91;4901524;29;20048;-73
2022/03/11 05:22:18;;;;;;;17.33;8.23;;;;;;;-2.31;89.18;102464.56;4901514;29;20406;-74
2022/03/11 05:25:05;;;;;;;15.82;8.15;;;;;;;-2.46;87.37;102461.94;4900404;29;20373;-72
2022/03/11 05:27:52;;;;;;;17.00;8.10;;;;;;;-2.32;86.39;102460.22;4900991;29;20060;-73
2022/03/11 05:30:37;;;;;;;15.95;8.38;;;;;;;-2.13;86.00;102463.13;4901416;29;20033;-74
2022/03/11 05:33:23;;;;;;;20.05;6.70;;;;;;;-2.21;86.04;102454.09;4900816;29;20045;-73
2022/03/11 05:36:09;;;;;;;21.52;8.05;;;;;;;-2.00;85.09;102455.38;4901876;29;20055;-73
2022/03/11 05:38:55;;;;;;;17.40;7.80;;;;;;;-1.84;83.75;102447.78;4901930;29;20417;-74
2022/03/11 05:41:41;;;;;;;17.10;7.30;;;;;;;-1.87;82.68;102457.88;4900156;29;20104;-73
2022/03/11 05:44:27;;;;;;;14.93;7.47;;;;;;;-1.99;83.04;102459.72;4901630;28;20036;-72
2022/03/11 05:47:12;;;;;;;16.02;8.00;;;;;;;-2.05;84.28;102455.09;4900996;29;20059;-73
2022/03/11 05:49:58;;;;;;;18.75;7.72;;;;;;;-1.80;82.64;102449.75;4886973;29;20050;-73
2022/03/11 05:52:44;;;;;;;17.15;7.90;;;;;;;-1.80;81.96;102465.16;4886234;29;20327;-73
2022/03/11 05:55:30;;;;;;;17.50;8.05;;;;;;;-1.88;80.48;102467.25;4887400;29;20040;-74
2022/03/11 05:58:16;;;;;;;18.90;8.20;;;;;;;-1.64;81.07;102465.28;4901877;29;20033;-73
2022/03/11 06:01:03;;;;;;;13.63;7.85;;;;;;;-1.61;75.58;102470.59;4900752;29;20132;-74
2022/03/11 06:03:49;;;;;;;23.25;8.85;;;;;;;-1.41;76.82;102467.50;4901206;29;20083;-72
2022/03/11 06:06:37;;;;;;;16.98;8.07;;;;;;;-1.35;77.50;102458.47;4900822;29;20107;-74
2022/03/11 06:09:23;;;;;;;15.98;8.38;;;;;;;-1.38;76.92;102466.00;4900310;29;20048;-74
2022/03/11 06:12:09;;;;;;;20.65;8.13;;;;;;;-1.43;76.45;102474.22;4901037;29;20115;-74
2022/03/11 06:14:54;;;;;;;14.73;8.77;;;;;;;-1.14;75.10;102461.34;4900054;29;20096;-74
2022/03/11 06:17:41;;;;;;;17.90;8.35;;;;;;;-1.24;76.09;102474.50;4901377;29;20032;-73
2022/03/11 06:20:29;;;;;;;12.05;6.85;;;;;;;-1.11;75.37;102479.53;4899456;29;20021;-72
2022/03/11 06:23:15;;;;;;;16.90;8.45;;;;;;;-1.16;74.27;102483.53;4900548;28;20120;-73
2022/03/11 06:26:01;;;;;;;13.02;7.32;;;;;;;-1.30;74.11;102493.03;4899446;29;20487;-73
2022/03/11 06:28:47;;;;;;;17.35;7.53;;;;;;;-1.21;74.13;102492.66;4900747;29;20486;-74
2022/03/11 06:31:33;;;;;;;17.90;8.30;;;;;;;-1.27;76.56;102493.22;4900471;29;20365;-73
2022/03/11 06:34:19;;;;;;;16.75;8.07;;;;;;;-1.18;73.96;102501.44;4899977;29;20064;-74
2022/03/11 06:37:04;;;;;;;16.83;8.00;;;;;;;-0.92;74.33;102490.09;4900783;29;20032;-73
2022/03/11 06:39:50;;;;;;;17.27;7.82;;;;;;;-1.16;73.53;102498.97;4899677;29;20067;-72
2022/03/11 06:42:41;;;;;;;18.40;8.18;;;;;;;-1.16;74.66;102498.97;4900589;29;20047;-73
2022/03/11 06:45:27;;;;;;;20.20;7.43;;;;;;;-0.89;72.83;102504.00;4899938;29;20131;-74
2022/03/11 06:48:13;;;;;;;14.13;7.53;;;;;;;-1.10;72.25;102500.22;4899246;29;20036;-73
2022/03/11 06:51:04;;;;;;;14.35;7.82;;;;;;;-1.03;72.60;102498.88;4899196;29;20028;-74
2022/03/11 06:53:50;;;;;;;13.27;7.40;;;;;;;-0.76;73.75;102500.44;4899591;29;20107;-73
2022/03/11 06:56:36;;;;;;;16.13;7.25;;;;;;;-0.70;71.67;102501.66;4899641;29;20462;-73
2022/03/11 06:59:22;;;;;;;15.05;7.25;;;;;;;-0.88;72.08;102499.75;4900107;29;20047;-74
2022/03/11 07:02:07;;;;;;;13.80;7.38;;;;;;;-0.80;72.48;102501.06;4898960;29;20033;-72
2022/03/11 07:04:53;;;;;;;13.95;7.28;;;;;;;-0.94;71.96;102489.09;4899047;29;20068;-73
2022/03/11 07:07:39;;;;;;;14.07;7.63;;;;;;;-0.38;71.83;102494.03;4900676;29;20374;-73
2022/03/11 07:10:25;;;;;;;21.58;8.10;;;;;;;-0.64;71.21;102493.41;4900835;29;20052;-72
2022/03/11 07:13:11;;;;;;;18.27;8.82;;;;;;;-0.38;69.88;102483.72;4900267;29;20039;-73
2022/03/11 07:15:57;;;;;;;17.23;8.95;;;;;;;-0.29;70.47;102498.75;4900617;29;20043;-73
2022/03/11 07:18:43;;;;;;;16.23;8.27;;;;;;;-0.13;71.50;102489.38;4899876;29;20038;-73
2022/03/11 07:21:29;;;;;;;15.48;8.60;;;;;;;0.00;70.82;102490.94;4900599;29;20048;-72
2022/03/11 07:24:14;;;;;;;16.40;8.18;;;;;;;-0.06;69.34;102486.34;4899989;29;20029;-73
2022/03/11 07:27:00;;;;;;;14.88;8.32;;;;;;;-0.01;71.27;102496.88;4899407;29;20430;-73
2022/03/11 07:29:46;;;;;;;14.18;8.35;;;;;;;0.16;70.67;102495.19;4899185;29;20033;-73
2022/03/11 07:32:32;;;;;;;14.98;8.80;;;;;;;0.04;70.36;102495.41;4902276;29;20036;-73
2022/03/11 07:35:18;;;;;;;24.70;10.43;;;;;;;0.08;71.46;102481.03;4903204;29;20025;-73
2022/03/11 07:38:05;;;;;;;24.92;11.85;;;;;;;0.17;68.41;102476.34;4902772;29;20036;-72
2022/03/11 07:40:51;;;;;;;16.00;8.40;;;;;;;0.48;65.77;102475.41;4903248;29;20048;-73
2022/03/11 07:43:41;;;;;;;18.58;8.70;;;;;;;0.62;63.83;102470.94;4903670;29;20439;-73
2022/03/11 07:46:28;;;;;;;13.38;7.60;;;;;;;0.82;62.19;102462.50;4888685;29;20044;-72
2022/03/11 07:49:14;;;;;;;13.00;7.47;;;;;;;1.32;60.36;102471.00;4903277;29;20037;-73
2022/03/11 07:52:00;;;;;;;12.82;7.10;;;;;;;0.99;59.50;102474.53;4903934;29;20354;-73
2022/03/11 07:54:46;;;;;;;17.55;7.72;;;;;;;1.19;60.64;102466.94;4902763;29;20115;-73
2022/03/11 07:57:32;;;;;;;13.00;7.13;;;;;;;0.67;58.65;102467.78;4903086;29;20473;-73
2022/03/11 08:00:18;;;;;;;17.42;7.72;;;;;;;1.12;59.79;102464.88;4902690;29;20060;-73
2022/03/11 08:03:04;;;;;;;15.48;8.80;;;;;;;1.16;58.29;102461.63;4902911;29;20052;-73
2022/03/11 08:05:50;;;;;;;15.07;7.68;;;;;;;1.99;57.12;102462.94;4902567;29;20450;-74
2022/03/11 08:08:37;;;;;;;17.30;7.70;;;;;;;1.68;55.10;102455.50;4903438;29;20025;-74
2022/03/11 08:11:22;;;;;;;16.13;7.38;;;;;;;2.02;54.63;102463.09;4902767;29;20024;-73
2022/03/11 08:14:08;;;;;;;15.65;6.78;;;;;;;2.28;52.73;102460.81;4902292;28;20367;-73
2022/03/11 08:16:54;;;;;;;13.40;7.30;;;;;;;2.16;52.51;102451.63;4903885;29;20036;-72
2022/03/11 08:19:40;;;;;;;17.30;6.88;;;;;;;1.87;51.44;102458.13;4902092;29;20032;-73
2022/03/11 08:22:26;;;;;;;11.20;6.95;;;;;;;2.05;51.99;102461.50;4902231;29;20032;-73
2022/03/11 08:25:12;;;;;;;12.73;7.35;;;;;;;2.00;50.87;102459.53;4901744;29;20028;-73
2022/03/11 08:27:58;;;;;;;10.35;6.63;;;;;;;2.41;49.66;102447.59;4903177;29;20056;-73
2022/03/11 08:30:44;;;;;;;13.68;7.13;;;;;;;1.84;49.97;102460.56;4901816;29;20028;-74
2022/03/11 08:33:30;;;;;;;16.23;6.57;;;;;;;2.11;50.31;102446.28;4903373;29;20033;-74
2022/03/11 08:36:16;;;;;;;11.07;6.60;;;;;;;2.48;48.67;102441.88;4902545;28;20169;-73
2022/03/11 08:39:02;;;;;;;13.50;6.57;;;;;;;2.50;48.08;102442.84;4901859;29;20031;-73
2022/03/11 08:41:48;;;;;;;12.07;7.03;;;;;;;2.98;45.68;102438.78;4901272;29;20056;-74
2022/03/11 08:44:34;;;;;;;13.57;7.20;;;;;;;2.71;46.40;102441.13;4902357;29;20044;-74
2022/03/11 08:47:20;;;;;;;13.73;6.78;;;;;;;2.57;46.84;102433.63;4902866;29;20401;-75
2022/03/11 08:50:06;;;;;;;14.70;6.95;;;;;;;2.80;46.62;102441.50;4901093;29;20108;-73
2022/03/11 08:52:52;;;;;;;10.95;6.78;;;;;;;2.27;46.43;102437.47;4888285;29;20124;-74
2022/03/11 08:55:38;;;;;;;12.93;6.10;;;;;;;3.02;45.60;102431.19;4901981;29;20033;-73
2022/03/11 08:58:24;;;;;;;12.45;6.57;;;;;;;4.13;44.79;102430.31;4902735;29;20039;-73
2022/03/11 09:01:10;;;;;;;19.23;6.72;;;;;;;3.98;44.26;102429.75;4902483;29;20036;-74
2022/03/11 09:03:55;;;;;;;20.17;10.82;;;;;;;4.35;44.97;102427.63;4902728;29;20385;-74
2022/03/11 09:06:41;;;;;;;11.50;6.35;;;;;;;3.95;43.02;102434.81;4901397;29;20042;-74
2022/03/11 09:09:27;;;;;;;10.68;6.43;;;;;;;3.50;43.13;102420.16;4901513;29;20538;-73
2022/03/11 09:12:13;;;;;;;10.00;6.35;;;;;;;3.23;43.35;102424.28;4902466;29;20036;-74
2022/03/11 09:14:59;;;;;;;10.52;5.75;;;;;;;3.62;41.53;102436.16;4901883;29;20024;-74
2022/03/11 09:17:48;;;;;;;11.30;5.93;;;;;;;3.69;40.44;102420.03;4902087;29;20119;-75
2022/03/11 09:20:34;;;;;;;13.52;6.25;;;;;;;4.17;41.60;102413.13;4886946;29;20337;-74
2022/03/11 09:23:21;;;;;;;10.57;6.05;;;;;;;3.86;41.14;102410.28;4901594;29;20366;-75
2022/03/11 09:26:07;;;;;;;9.10;5.80;;;;;;;3.39;42.35;102420.56;4900867;29;20028;-75
2022/03/11 09:28:53;;;;;;;10.68;4.95;;;;;;;3.04;42.76;102416.63;4901534;28;20025;-74
2022/03/11 09:31:38;;;;;;;9.50;5.45;;;;;;;2.54;42.53;102417.97;4900286;29;20091;-75
2022/03/11 09:34:24;;;;;;;9.40;5.10;;;;;;;3.95;42.55;102408.88;4900943;29;20028;-75
2022/03/11 09:37:11;;;;;;;9.60;5.10;;;;;;;4.27;41.45;102395.34;4900474;29;20059;-74
2022/03/11 09:39:56;;;;;;;9.68;4.88;;;;;;;4.33;41.46;102403.34;4902113;29;20051;-74
2022/03/11 09:42:43;;;;;;;8.82;5.00;;;;;;;3.97;41.61;102396.88;4901477;29;20135;-73
2022/03/11 09:45:29;;;;;;;8.88;5.38;;;;;;;3.97;43.37;102399.47;4901393;29;20077;-75
2022/03/11 09:48:19;;;;;;;11.98;6.95;;;;;;;3.18;47.17;102404.22;4900846;29;20028;-75
2022/03/11 09:51:04;;;;;;;9.85;6.43;;;;;;;2.84;48.42;102404.56;4901567;29;20025;-74
2022/03/11 09:53:51;;;;;;;13.77;7.45;;;;;;;2.94;50.66;102396.34;4901034;29;20032;-74
2022/03/11 09:56:39;;;;;;;10.75;7.13;;;;;;;2.56;53.71;102400.78;4900802;29;20072;-75
2022/03/11 09:59:26;;;;;;;17.73;7.75;;;;;;;2.90;55.54;102398.78;4901541;29;20039;-74
2022/03/11 10:02:14;;;;;;;14.48;7.80;;;;;;;2.63;56.54;102403.72;4899653;29;20095;-74
2022/03/11 10:05:00;;;;;;;11.05;7.28;;;;;;;2.47;56.98;102401.31;4900761;29;20048;-74
2022/03/11 10:07:58;;;;;;;17.55;8.20;;;;;;;2.27;57.82;102402.19;4899894;29;20062;-74
2022/03/11 10:10:44;;;;;;;12.77;8.00;;;;;;;2.44;58.00;102398.59;4899701;29;20100;-74
2022/03/11 10:13:37;;;;;;;14.20;8.07;;;;;;;1.89;60.04;102404.78;4899961;29;20036;-74
2022/03/11 10:16:27;;;;;;;13.50;8.15;;;;;;;2.00;60.41;102410.41;4900732;29;20032;-74
2022/03/11 10:19:13;;;;;;;13.65;7.60;;;;;;;2.21;59.55;102401.91;4900678;29;20111;-74
2022/03/11 10:22:00;;;;;;;14.48;7.68;;;;;;;2.55;57.88;102401.63;4900283;29;20108;-75
2022/03/11 10:24:45;;;;;;;13.50;8.70;;;;;;;2.83;57.41;102391.56;4900704;29;20446;-74
2022/03/11 10:27:31;;;;;;;14.65;8.10;;;;;;;2.71;56.02;102385.91;4900696;29;20036;-74
2022/03/11 10:30:17;;;;;;;13.05;8.40;;;;;;;2.99;54.86;102381.91;4899937;29;20040;-76
2022/03/11 10:33:08;;;;;;;15.73;8.75;;;;;;;2.71;57.17;102391.06;4900346;29;20045;-75
2022/03/11 10:35:54;;;;;;;14.43;8.50;;;;;;;2.82;57.17;102387.22;4900121;29;20047;-74
2022/03/11 10:38:46;;;;;;;16.45;8.20;;;;;;;2.40;60.89;102394.09;4900637;29;20434;-74
2022/03/11 10:41:34;;;;;;;12.38;8.15;;;;;;;2.02;68.33;102388.13;4900899;29;20513;-74
2022/03/11 10:44:26;;;;;;;11.50;7.43;;;;;;;2.02;73.54;102383.84;4899425;29;20060;-75
2022/03/11 10:47:23;;;;;;;12.88;7.57;;;;;;;2.03;76.38;102380.44;4899926;29;20064;-74
2022/03/11 10:50:15;;;;;;;19.40;8.70;;;;;;;2.83;73.44;102370.88;4887016;29;20024;-74
2022/03/11 10:53:06;;;;;;;12.40;8.05;;;;;;;2.48;74.07;102379.78;4887636;29;20043;-75
2022/03/11 10:56:04;;;;;;;14.50;8.85;;;;;;;2.52;93.20;102379.09;4900929;29;20488;-74
2022/03/11 10:58:50;;;;;;;13.80;8.82;;;;;;;1.61;100.00;102377.69;4900216;29;20040;-75
2022/03/11 11:01:41;;;;;;;13.50;8.70;;;;;;;1.97;100.00;102380.16;4900070;29;20115;-76
2022/03/11 11:04:27;;;;;;;17.55;9.15;;;;;;;1.65;100.00;102377.84;4899568;29;20458;-76
2022/03/11 11:07:13;;;;;;;15.13;8.95;;;;;;;1.86;100.00;102373.66;4903033;29;20052;-75
2022/03/11 11:10:00;;;;;;;13.80;9.15;;;;;;;2.53;100.00;102360.16;4903902;29;20024;-73
2022/03/11 11:12:47;;;;;;;13.32;8.75;;;;;;;2.73;100.00;102364.44;4904081;29;20031;-73
2022/03/11 11:15:33;;;;;;;15.13;8.95;;;;;;;3.15;100.00;102354.88;4903735;29;20096;-74
2022/03/11 11:18:24;;;;;;;16.15;10.43;;;;;;;3.14;100.00;102353.13;4903774;29;20369;-74
2022/03/11 11:21:10;;;;;;;12.60;8.05;;;;;;;3.31;93.56;102350.38;4903307;29;20031;-74
2022/03/11 11:23:57;;;;;;;26.83;10.52;;;;;;;3.98;85.64;102331.22;4903902;29;20033;-75
2022/03/11 11:26:49;;;;;;;10.52;7.45;;;;;;;4.65;76.22;102334.34;4903250;29;20076;-74
2022/03/11 11:29:36;;;;;;;12.40;7.68;;;;;;;4.53;70.93;102328.75;4903775;29;20386;-76
2022/03/11 11:32:23;;;;;;;10.68;7.53;;;;;;;3.86;69.08;102330.78;4903564;28;20511;-74
2022/03/11 11:35:22;;;;;;;12.93;8.55;;;;;;;3.90;68.62;102322.28;4903130;29;20036;-74
2022/03/11 11:38:34;;;;;;;16.25;9.00;;;;;;;3.94;70.05;102320.69;4903403;29;20032;-75
2022/03/11 11:41:26;;;;;;;18.33;11.93;;;;;;;4.40;68.32;102322.31;4902855;29;20132;-74
2022/03/11 11:44:16;;;;;;;16.27;8.45;;;;;;;3.48;75.66;102327.66;4902735;29;20060;-74
2022/03/11 11:47:20;;;;;;;14.10;9.32;;;;;;;2.53;85.30;102318.78;4902883;29;20175;-73
2022/03/11 11:50:16;;;;;;;14.35;8.45;;;;;;;2.32;87.39;102317.00;4903390;29;20029;-74
2022/03/11 11:53:03;;;;;;;13.10;8.90;;;;;;;1.79;88.34;102321.63;4888990;29;20402;-76
2022/03/11 11:55:51;;;;;;;12.20;8.23;;;;;;;2.18;88.09;102319.06;4891106;29;20039;-74
2022/03/11 11:58:49;;;;;;;12.80;8.18;;;;;;;2.66;83.43;102308.09;4907172;29;20040;-74
2022/03/11 12:01:55;;;;;;;12.57;8.52;;;;;;;2.75;81.17;102308.47;4903801;29;20041;-74
2022/03/11 12:04:41;;;;;;;12.77;7.68;;;;;;;2.57;77.79;102305.13;4902771;29;20072;-74
2022/03/11 12:07:47;;;;;;;11.00;7.85;;;;;;;2.92;72.79;102298.75;4903034;29;20363;-74
2022/03/11 12:10:33;;;;;;;11.77;7.95;;;;;;;3.77;68.19;102295.88;4902264;29;20029;-74
2022/03/11 12:13:39;;;;;;;14.95;8.02;;;;;;;3.99;66.49;102290.63;4888054;29;20055;-75
2022/03/11 12:16:25;;;;;;;12.90;8.50;;;;;;;3.44;65.43;102287.81;4902479;29;20480;-74
2022/03/11 12:19:41;;;;;;;15.77;8.45;;;;;;;3.23;64.79;102287.03;4888849;29;20147;-75
2022/03/11 12:22:32;;;;;;;12.15;8.15;;;;;;;2.64;69.33;102301.09;4902664;29;20044;-75
2022/03/11 12:25:21;;;;;;;12.93;8.15;;;;;;;2.03;75.21;102302.00;4902766;29;20040;-74
2022/03/11 12:28:12;;;;;;;14.00;7.47;;;;;;;1.92;82.36;102298.97;4903176;29;20449;-75
2022/03/11 12:31:00;;;;;;;12.32;8.07;;;;;;;1.68;82.71;102303.09;4902684;28;20024;-74
2022/03/11 12:33:48;;;;;;;13.30;8.05;;;;;;;1.77;81.88;102308.66;4902071;29;20115;-75
2022/03/11 12:36:34;;;;;;;14.10;8.35;;;;;;;2.35;81.37;102312.88;4901943;29;20059;-74
2022/03/11 12:39:27;;;;;;;11.50;7.93;;;;;;;2.41;76.72;102307.06;4903160;29;20024;-74
2022/03/11 12:42:12;;;;;;;11.43;7.80;;;;;;;2.70;74.50;102297.03;4901598;29;20036;-75
2022/03/11 12:44:58;;;;;;;15.32;8.63;;;;;;;3.31;71.23;102301.16;4901408;29;20088;-74
2022/03/11 12:47:44;;;;;;;12.48;8.18;;;;;;;4.23;66.10;102289.72;4902612;28;20043;-75
2022/03/11 12:50:30;;;;;;;12.40;8.30;;;;;;;3.76;64.82;102292.41;4887280;29;20048;-74